Lubbock, TX (79401)

6:58 AM CDT on August 26, 2016 (GMT -0500)
APRSWXNET | | Change Station

Elev 3221 ft 33.58 °N, 101.88 °W | Updated 36 minutes ago

Overcast
Overcast
65 °F
Feels Like 65 °F
N
0
Wind Variable Wind from East
Gusts 0.0 mph

Today
High -- | Low -- °F
--% Chance of Precip.
Yesterday
High -- | Low -- °F
Precip. -- in
Pressure 30.01 in
Visibility 9.0 miles
Clouds Mostly Cloudy 10000 ft
Mostly Cloudy 15000 ft
Overcast 25000 ft
Dew Point 62 °F
Humidity 91%
Rainfall in
Snow Depth Not available.
7:17 AM 8:19 PM
Waning Crescent, 35% visible
METAR KLBB 261153Z 10004KT 9SM BKN100 BKN150 OVC250 18/17 A3014 RMK AO2 SLP161 60016 70026 T01780167 10183 20178 58001
Pressure 30.01 in
Visibility 9.0 miles
Clouds Mostly Cloudy 10000 ft
Mostly Cloudy 15000 ft
Overcast 25000 ft
Dew Point 62 °F
Humidity 91%
Rainfall in
Snow Depth Not available.
7:17 AM 8:19 PM
Waning Crescent, 35% visible
METAR KLBB 261153Z 10004KT 9SM BKN100 BKN150 OVC250 18/17 A3014 RMK AO2 SLP161 60016 70026 T01780167 10183 20178 58001

10-Day Weather Forecast

Almanac

Astronomy

Aug. 26, 2016 Rise Set
Actual Time
Civil Twilight
Nautical Twilight
Astronomical Twilight
Moon
Length of Visible Light
Length of Day
Tomorrow will be .
, % of the Moon is Illuminated

Today's Extremes

State Highs State Lows

Community

WunderPhotos

Upload Photos

1,935,071 photos uploaded!

WunderBlog® & News

Nearby

Air Quality

  Air Quality AQ Index Pollutant
Not available.

Snow Depth

Station Depth Elevation

Earthquake Activity

City Distance Mag. Time & Date
Minimum magnitude displayed is 2.5.

Coastal Water Temperatures

Place Temperature

Stations

Nearby Weather Stations

Station Location Temp. Windchill Dew Point Humidity Wind Precip. Elev Updated Type
                   

Watches & Warnings

There are currently no watches in effect.